Archival Weather

Snohomish County (Paine Fld)

Everett, Washington (KPAE)

Report from: Thursday, November 2, 2023 8:53 AM PDT
Current time: Sunday, June 16, 2024 11:43 PM PDT

Current weather – Weather history – Daily summaries
Weather forecast

Present weatherLight rain, mist
Temperature13.3°C (55.9°F)
Dew point12.2°C (54.0°F)
Winds 14 kts (7.2 m/s, 16.1 mph) South (170°)
Wind gusts 22 kts (11.3 m/s, 25.3 mph)
Visibility4 mi. (6.4 km)
Clouds Ceiling: Broken clouds 600 ft. (183 m)
Overcast 1,000 ft. (305 m)
Altimeter29.72 in.Hg (1006 mB)
Precipitiation0.02 in. (1 mm)
Precip. events Rain began 2:55 PM
Relative humidity93 %
Density altitude233 ft. (71 m)
Sea-level pressure100.6 kPa (1006 mB, 29.72 in.Hg)
Remarks Automated weather observing station with precipitation discriminator
Ceiling
Flight conditions Instrument Meteorological Conditions
Raw dataKPAE 021553Z 17014G22KT 4SM -RA BR BKN006 OVC010 13/12 A2972 RMK AO2 RAB1455 CIG 004V008 SLP063 P0002 T01330122
An error has occurred. This application may no longer respond until reloaded. Reload 🗙